Fruitland
, Fruitland
Last Weather Update:07/31/2011 10:00:00 PM
Date
ETo
ETc
Rain
Irrigation
Req
Temp
Max
Temp
Min
Temp
Avg
Avg RH
Avg Wind
Avg Solar
inches
inches
incehs
inches
F
F
F
%
%
watts/m2
06/01/2011 0.20" 0.16" 0.00" 0.16" 72.5° 26.2° 53.0° 40.1% 4.0 MPH 247.9w/m2
06/02/2011 0.26" 0.21" 0.00" 0.21" 63.1° 32.6° 49.2° 33.9% 9.0 MPH 384.7w/m2
06/03/2011 0.23" 0.18" 0.00" 0.18" 65.6° 27.8° 47.3° 41.7% 4.0 MPH 374.8w/m2
06/04/2011 0.24" 0.19" 0.00" 0.19" 74.9° 26.4° 51.9° 43.9% 3.6 MPH 344.3w/m2
06/05/2011 0.27" 0.22" 0.00" 0.22" 80.7° 29.1° 57.8° 40.2% 2.7 MPH 379.8w/m2
06/06/2011 0.27" 0.22" 0.00" 0.22" 78.8° 34.0° 55.7° 39.7% 8.5 MPH 309.4w/m2
06/07/2011 0.25" 0.20" 0.00" 0.20" 67.9° 34.3° 53.4° 44.9% 6.3 MPH 378.0w/m2
06/08/2011 0.23" 0.18" 0.00" 0.18" 73.5° 31.0° 54.7° 46.4% 4.1 MPH 321.8w/m2
06/09/2011 0.23" 0.19" 0.00" 0.19" 64.3° 33.7° 51.4° 51.1% 8.8 MPH 360.6w/m2
06/10/2011 0.21" 0.17" 0.00" 0.17" 72.8° 28.7° 52.2° 46.9% 2.5 MPH 341.8w/m2
06/11/2011 0.27" 0.22" 0.00" 0.22" 76.4° 35.6° 57.8° 44.7% 5.5 MPH 359.5w/m2
06/12/2011 0.24" 0.19" 0.00" 0.19" 73.2° 37.9° 57.7° 42.9% 5.6 MPH 300.3w/m2
06/13/2011 0.21" 0.17" 0.00" 0.17" 73.0° 39.8° 55.8° 49.5% 4.9 MPH 274.8w/m2
06/14/2011 0.26" 0.21" 0.00" 0.21" 72.4° 39.6° 56.7° 52.1% 6.1 MPH 376.1w/m2
06/15/2011 0.28" 0.23" 0.00" 0.23" 81.6° 36.9° 61.9° 43.7% 5.0 MPH 365.5w/m2
06/16/2011 0.19" 0.15" 0.01" 0.14" 72.9° 40.3° 57.3° 53.1% 6.2 MPH 240.3w/m2
06/17/2011 0.24" 0.19" 0.00" 0.19" 71.2° 32.0° 52.8° 41.1% 3.4 MPH 370.8w/m2
06/18/2011 0.24" 0.19" 0.00" 0.19" 74.5° 34.1° 57.0° 45.6% 5.3 MPH 317.5w/m2
06/19/2011 0.12" 0.10" 0.07" 0.04" 57.2° 44.4° 50.0° 66.1% 9.4 MPH 184.7w/m2
06/20/2011 0.24" 0.20" 0.00" 0.20" 69.6° 39.2° 55.2° 53.4% 8.6 MPH 359.1w/m2
06/21/2011 0.27" 0.22" 0.00" 0.22" 76.8° 36.1° 58.5° 47.9% 5.1 MPH 375.8w/m2
06/22/2011 0.28" 0.23" 0.00" 0.23" 83.8° 37.8° 62.4° 41.3% 4.0 MPH 382.1w/m2
06/23/2011 0.29" 0.23" 0.00" 0.23" 86.9° 39.9° 65.3° 42.9% 4.9 MPH 348.1w/m2
06/24/2011 0.33" 0.26" 0.00" 0.26" 83.3° 43.5° 65.5° 37.8% 7.5 MPH 378.2w/m2
06/25/2011 0.31" 0.25" 0.00" 0.25" 82.7° 39.2° 63.9° 38.7% 5.9 MPH 376.9w/m2
06/26/2011 0.30" 0.24" 0.00" 0.24" 78.8° 40.0° 61.4° 39.8% 6.7 MPH 376.6w/m2
06/27/2011 0.24" 0.19" 0.00" 0.19" 84.6° 36.5° 62.4° 42.5% 1.2 MPH 361.5w/m2
06/28/2011 0.28" 0.22" 0.00" 0.22" 89.2° 39.7° 66.3° 37.9% 3.4 MPH 324.8w/m2
06/29/2011 0.17" 0.14" 0.04" 0.11" 82.7° 43.8° 61.9° 54.9% 4.5 MPH 183.2w/m2
06/30/2011 0.14" 0.11" 0.22" -0.06" 73.6° 44.5° 56.2° 74.9% 3.0 MPH 208.9w/m2
Totals: 7.32" 5.85" 0.34" 5.58" 89.2° 26.2° 57.1° 46.0% 5.3 MPH 330.3w/m2